sensor_id;sensor_type;location;lat;lon;timestamp;P1;durP1;ratioP1;P2;durP2;ratioP2
21402;SDS011;10862;51.886;17.078;2023-01-25T00:01:49;125.67;;;61.10;;
21402;SDS011;10862;51.886;17.078;2023-01-25T00:04:17;107.10;;;53.63;;
21402;SDS011;10862;51.886;17.078;2023-01-25T00:06:43;109.23;;;48.67;;
21402;SDS011;10862;51.886;17.078;2023-01-25T00:09:09;104.80;;;50.27;;
21402;SDS011;10862;51.886;17.078;2023-01-25T00:11:35;107.93;;;48.37;;
21402;SDS011;10862;51.886;17.078;2023-01-25T00:14:02;102.00;;;48.87;;
21402;SDS011;10862;51.886;17.078;2023-01-25T00:16:28;106.47;;;49.27;;
21402;SDS011;10862;51.886;17.078;2023-01-25T00:18:54;97.57;;;48.37;;
21402;SDS011;10862;51.886;17.078;2023-01-25T00:21:21;92.10;;;46.33;;
21402;SDS011;10862;51.886;17.078;2023-01-25T00:23:48;90.73;;;46.27;;
21402;SDS011;10862;51.886;17.078;2023-01-25T00:26:14;100.30;;;49.87;;
21402;SDS011;10862;51.886;17.078;2023-01-25T00:28:40;121.67;;;50.90;;
21402;SDS011;10862;51.886;17.078;2023-01-25T00:31:07;111.80;;;50.17;;
21402;SDS011;10862;51.886;17.078;2023-01-25T00:33:43;144.90;;;61.47;;
21402;SDS011;10862;51.886;17.078;2023-01-25T00:36:31;132.87;;;54.87;;
21402;SDS011;10862;51.886;17.078;2023-01-25T00:39:05;128.80;;;54.53;;
21402;SDS011;10862;51.886;17.078;2023-01-25T00:41:34;113.57;;;52.43;;
21402;SDS011;10862;51.886;17.078;2023-01-25T00:44:00;133.47;;;59.03;;
21402;SDS011;10862;51.886;17.078;2023-01-25T00:46:26;132.17;;;58.73;;
21402;SDS011;10862;51.886;17.078;2023-01-25T00:48:52;123.80;;;61.70;;
21402;SDS011;10862;51.886;17.078;2023-01-25T00:51:19;112.10;;;54.97;;
21402;SDS011;10862;51.886;17.078;2023-01-25T00:53:45;119.27;;;57.70;;
21402;SDS011;10862;51.886;17.078;2023-01-25T00:56:11;115.00;;;56.17;;
21402;SDS011;10862;51.886;17.078;2023-01-25T00:58:36;111.93;;;56.07;;
21402;SDS011;10862;51.886;17.078;2023-01-25T01:01:02;112.30;;;57.63;;
21402;SDS011;10862;51.886;17.078;2023-01-25T01:03:28;129.90;;;59.40;;
21402;SDS011;10862;51.886;17.078;2023-01-25T01:05:58;117.03;;;48.23;;
21402;SDS011;10862;51.886;17.078;2023-01-25T01:08:28;109.73;;;48.10;;
21402;SDS011;10862;51.886;17.078;2023-01-25T01:10:57;112.23;;;51.77;;
21402;SDS011;10862;51.886;17.078;2023-01-25T01:13:28;108.53;;;48.73;;
21402;SDS011;10862;51.886;17.078;2023-01-25T01:15:53;111.27;;;49.53;;
21402;SDS011;10862;51.886;17.078;2023-01-25T01:18:20;111.87;;;50.00;;
21402;SDS011;10862;51.886;17.078;2023-01-25T01:20:49;97.83;;;46.87;;
21402;SDS011;10862;51.886;17.078;2023-01-25T01:23:16;116.23;;;47.60;;
21402;SDS011;10862;51.886;17.078;2023-01-25T01:25:42;152.50;;;57.77;;
21402;SDS011;10862;51.886;17.078;2023-01-25T01:28:08;115.40;;;45.50;;
21402;SDS011;10862;51.886;17.078;2023-01-25T01:30:36;137.13;;;49.57;;
21402;SDS011;10862;51.886;17.078;2023-01-25T01:33:03;173.77;;;62.77;;
21402;SDS011;10862;51.886;17.078;2023-01-25T01:35:29;113.27;;;49.17;;
21402;SDS011;10862;51.886;17.078;2023-01-25T01:37:56;114.93;;;50.27;;
21402;SDS011;10862;51.886;17.078;2023-01-25T01:40:22;121.40;;;49.00;;
21402;SDS011;10862;51.886;17.078;2023-01-25T01:43:04;111.73;;;46.63;;
21402;SDS011;10862;51.886;17.078;2023-01-25T01:51:00;125.47;;;53.27;;
21402;SDS011;10862;51.886;17.078;2023-01-25T01:53:51;113.50;;;49.63;;
21402;SDS011;10862;51.886;17.078;2023-01-25T01:56:23;103.03;;;47.83;;
21402;SDS011;10862;51.886;17.078;2023-01-25T01:58:59;133.07;;;63.37;;
21402;SDS011;10862;51.886;17.078;2023-01-25T02:01:27;118.57;;;57.00;;
21402;SDS011;10862;51.886;17.078;2023-01-25T02:03:52;142.00;;;62.47;;
21402;SDS011;10862;51.886;17.078;2023-01-25T02:07:04;119.93;;;56.80;;
21402;SDS011;10862;51.886;17.078;2023-01-25T02:09:08;105.97;;;54.73;;
21402;SDS011;10862;51.886;17.078;2023-01-25T02:11:33;137.13;;;65.53;;
21402;SDS011;10862;51.886;17.078;2023-01-25T02:14:01;123.80;;;59.33;;
21402;SDS011;10862;51.886;17.078;2023-01-25T02:16:27;139.97;;;68.73;;
21402;SDS011;10862;51.886;17.078;2023-01-25T02:18:54;152.07;;;59.57;;
21402;SDS011;10862;51.886;17.078;2023-01-25T02:21:22;144.80;;;62.70;;
21402;SDS011;10862;51.886;17.078;2023-01-25T02:24:08;194.83;;;69.27;;
21402;SDS011;10862;51.886;17.078;2023-01-25T02:26:40;125.50;;;59.63;;
21402;SDS011;10862;51.886;17.078;2023-01-25T02:29:07;119.67;;;55.43;;
21402;SDS011;10862;51.886;17.078;2023-01-25T02:31:34;104.93;;;45.47;;
21402;SDS011;10862;51.886;17.078;2023-01-25T02:34:00;124.03;;;52.13;;
21402;SDS011;10862;51.886;17.078;2023-01-25T02:36:30;124.70;;;53.33;;
21402;SDS011;10862;51.886;17.078;2023-01-25T02:39:13;144.53;;;58.17;;
21402;SDS011;10862;51.886;17.078;2023-01-25T02:41:42;128.23;;;52.77;;
21402;SDS011;10862;51.886;17.078;2023-01-25T02:44:13;119.10;;;51.33;;
21402;SDS011;10862;51.886;17.078;2023-01-25T02:46:50;110.87;;;47.67;;
21402;SDS011;10862;51.886;17.078;2023-01-25T02:49:16;115.90;;;49.20;;
21402;SDS011;10862;51.886;17.078;2023-01-25T02:51:43;101.60;;;45.90;;
21402;SDS011;10862;51.886;17.078;2023-01-25T02:54:11;100.53;;;44.70;;
21402;SDS011;10862;51.886;17.078;2023-01-25T02:56:38;108.40;;;44.80;;
21402;SDS011;10862;51.886;17.078;2023-01-25T02:59:05;124.97;;;53.07;;
21402;SDS011;10862;51.886;17.078;2023-01-25T03:01:32;103.03;;;46.20;;
21402;SDS011;10862;51.886;17.078;2023-01-25T03:03:59;123.73;;;59.00;;
21402;SDS011;10862;51.886;17.078;2023-01-25T03:06:25;160.17;;;67.43;;
21402;SDS011;10862;51.886;17.078;2023-01-25T03:08:50;193.27;;;77.33;;
21402;SDS011;10862;51.886;17.078;2023-01-25T03:11:16;134.63;;;59.00;;
21402;SDS011;10862;51.886;17.078;2023-01-25T03:13:42;283.50;;;108.87;;
21402;SDS011;10862;51.886;17.078;2023-01-25T03:16:09;151.77;;;68.73;;
21402;SDS011;10862;51.886;17.078;2023-01-25T03:18:36;122.13;;;57.80;;
21402;SDS011;10862;51.886;17.078;2023-01-25T03:21:07;106.70;;;55.83;;
21402;SDS011;10862;51.886;17.078;2023-01-25T03:23:38;101.93;;;56.70;;
21402;SDS011;10862;51.886;17.078;2023-01-25T03:26:09;111.93;;;57.40;;
21402;SDS011;10862;51.886;17.078;2023-01-25T03:28:37;116.07;;;48.60;;
21402;SDS011;10862;51.886;17.078;2023-01-25T03:31:04;162.67;;;63.63;;
21402;SDS011;10862;51.886;17.078;2023-01-25T03:33:31;170.63;;;68.03;;
21402;SDS011;10862;51.886;17.078;2023-01-25T03:35:57;149.13;;;64.40;;
21402;SDS011;10862;51.886;17.078;2023-01-25T03:38:23;163.27;;;76.90;;
21402;SDS011;10862;51.886;17.078;2023-01-25T03:40:50;173.23;;;68.90;;
21402;SDS011;10862;51.886;17.078;2023-01-25T03:43:15;146.07;;;59.73;;
21402;SDS011;10862;51.886;17.078;2023-01-25T03:45:41;142.93;;;57.63;;
21402;SDS011;10862;51.886;17.078;2023-01-25T03:48:07;107.20;;;48.47;;
21402;SDS011;10862;51.886;17.078;2023-01-25T03:50:33;129.20;;;51.13;;
21402;SDS011;10862;51.886;17.078;2023-01-25T03:53:32;113.20;;;47.73;;
21402;SDS011;10862;51.886;17.078;2023-01-25T03:55:56;108.23;;;48.30;;
21402;SDS011;10862;51.886;17.078;2023-01-25T03:58:31;109.43;;;45.50;;
21402;SDS011;10862;51.886;17.078;2023-01-25T04:00:57;104.33;;;46.47;;
21402;SDS011;10862;51.886;17.078;2023-01-25T04:03:25;116.60;;;51.60;;
21402;SDS011;10862;51.886;17.078;2023-01-25T04:05:51;122.40;;;51.77;;
21402;SDS011;10862;51.886;17.078;2023-01-25T04:08:18;117.23;;;49.47;;
21402;SDS011;10862;51.886;17.078;2023-01-25T04:10:44;121.60;;;50.03;;
21402;SDS011;10862;51.886;17.078;2023-01-25T04:13:18;146.60;;;57.80;;
21402;SDS011;10862;51.886;17.078;2023-01-25T04:15:45;104.43;;;53.93;;
21402;SDS011;10862;51.886;17.078;2023-01-25T04:18:11;113.77;;;48.30;;
21402;SDS011;10862;51.886;17.078;2023-01-25T04:20:37;115.47;;;49.27;;
21402;SDS011;10862;51.886;17.078;2023-01-25T04:23:02;109.30;;;48.80;;
21402;SDS011;10862;51.886;17.078;2023-01-25T04:25:28;112.60;;;48.03;;
21402;SDS011;10862;51.886;17.078;2023-01-25T04:27:54;123.07;;;49.60;;
21402;SDS011;10862;51.886;17.078;2023-01-25T04:30:19;110.40;;;48.13;;
21402;SDS011;10862;51.886;17.078;2023-01-25T04:32:45;125.63;;;51.47;;
21402;SDS011;10862;51.886;17.078;2023-01-25T04:35:11;127.30;;;49.23;;
21402;SDS011;10862;51.886;17.078;2023-01-25T04:37:36;113.43;;;48.13;;
21402;SDS011;10862;51.886;17.078;2023-01-25T04:40:02;119.93;;;48.50;;
21402;SDS011;10862;51.886;17.078;2023-01-25T04:42:29;117.90;;;47.93;;
21402;SDS011;10862;51.886;17.078;2023-01-25T04:44:54;119.87;;;48.63;;
21402;SDS011;10862;51.886;17.078;2023-01-25T04:47:20;145.33;;;55.90;;
21402;SDS011;10862;51.886;17.078;2023-01-25T04:49:46;150.73;;;59.67;;
21402;SDS011;10862;51.886;17.078;2023-01-25T04:52:11;134.67;;;56.57;;
21402;SDS011;10862;51.886;17.078;2023-01-25T04:54:37;128.20;;;55.20;;
21402;SDS011;10862;51.886;17.078;2023-01-25T04:57:03;127.23;;;57.00;;
21402;SDS011;10862;51.886;17.078;2023-01-25T04:59:28;121.97;;;54.60;;
21402;SDS011;10862;51.886;17.078;2023-01-25T05:01:54;133.57;;;53.27;;
21402;SDS011;10862;51.886;17.078;2023-01-25T05:04:20;126.90;;;56.77;;
21402;SDS011;10862;51.886;17.078;2023-01-25T05:06:45;126.03;;;55.53;;
21402;SDS011;10862;51.886;17.078;2023-01-25T05:09:11;144.20;;;59.27;;
21402;SDS011;10862;51.886;17.078;2023-01-25T05:11:37;148.30;;;63.37;;
21402;SDS011;10862;51.886;17.078;2023-01-25T05:14:03;140.30;;;56.73;;
21402;SDS011;10862;51.886;17.078;2023-01-25T05:16:28;122.77;;;54.10;;
21402;SDS011;10862;51.886;17.078;2023-01-25T05:18:54;125.03;;;52.93;;
21402;SDS011;10862;51.886;17.078;2023-01-25T05:21:20;144.83;;;61.07;;
21402;SDS011;10862;51.886;17.078;2023-01-25T05:24:04;151.37;;;64.60;;
21402;SDS011;10862;51.886;17.078;2023-01-25T05:26:30;126.67;;;54.70;;
21402;SDS011;10862;51.886;17.078;2023-01-25T05:29:14;131.10;;;55.37;;
21402;SDS011;10862;51.886;17.078;2023-01-25T05:31:40;128.37;;;55.03;;
21402;SDS011;10862;51.886;17.078;2023-01-25T05:34:07;177.53;;;68.60;;
21402;SDS011;10862;51.886;17.078;2023-01-25T05:36:33;136.40;;;59.43;;
21402;SDS011;10862;51.886;17.078;2023-01-25T05:38:59;139.97;;;55.83;;
21402;SDS011;10862;51.886;17.078;2023-01-25T05:41:25;120.60;;;56.10;;
21402;SDS011;10862;51.886;17.078;2023-01-25T05:43:50;150.77;;;63.20;;
21402;SDS011;10862;51.886;17.078;2023-01-25T05:46:16;163.97;;;63.20;;
21402;SDS011;10862;51.886;17.078;2023-01-25T05:48:42;151.80;;;61.33;;
21402;SDS011;10862;51.886;17.078;2023-01-25T05:51:07;244.90;;;80.77;;
21402;SDS011;10862;51.886;17.078;2023-01-25T05:53:33;128.77;;;56.00;;
21402;SDS011;10862;51.886;17.078;2023-01-25T05:56:05;265.97;;;87.07;;
21402;SDS011;10862;51.886;17.078;2023-01-25T05:58:32;276.17;;;93.83;;
21402;SDS011;10862;51.886;17.078;2023-01-25T06:00:59;246.97;;;84.60;;
21402;SDS011;10862;51.886;17.078;2023-01-25T06:03:25;236.73;;;83.03;;
21402;SDS011;10862;51.886;17.078;2023-01-25T06:05:58;217.93;;;76.73;;
21402;SDS011;10862;51.886;17.078;2023-01-25T06:08:28;183.03;;;68.00;;
21402;SDS011;10862;51.886;17.078;2023-01-25T06:10:55;179.57;;;65.27;;
21402;SDS011;10862;51.886;17.078;2023-01-25T06:13:20;180.47;;;65.87;;
21402;SDS011;10862;51.886;17.078;2023-01-25T06:15:51;156.00;;;59.67;;
21402;SDS011;10862;51.886;17.078;2023-01-25T06:18:17;178.37;;;69.63;;
21402;SDS011;10862;51.886;17.078;2023-01-25T06:20:43;163.47;;;68.83;;
21402;SDS011;10862;51.886;17.078;2023-01-25T06:23:09;161.37;;;74.97;;
21402;SDS011;10862;51.886;17.078;2023-01-25T06:25:35;273.20;;;113.23;;
21402;SDS011;10862;51.886;17.078;2023-01-25T06:28:00;176.97;;;76.70;;
21402;SDS011;10862;51.886;17.078;2023-01-25T06:30:26;154.13;;;61.97;;
21402;SDS011;10862;51.886;17.078;2023-01-25T06:32:52;147.37;;;63.60;;
21402;SDS011;10862;51.886;17.078;2023-01-25T06:35:17;157.03;;;70.03;;
21402;SDS011;10862;51.886;17.078;2023-01-25T06:37:43;159.00;;;59.73;;
21402;SDS011;10862;51.886;17.078;2023-01-25T06:40:09;151.07;;;63.90;;
21402;SDS011;10862;51.886;17.078;2023-01-25T06:42:35;168.50;;;73.50;;
21402;SDS011;10862;51.886;17.078;2023-01-25T06:45:01;143.73;;;56.27;;
21402;SDS011;10862;51.886;17.078;2023-01-25T06:47:27;140.13;;;55.70;;
21402;SDS011;10862;51.886;17.078;2023-01-25T06:49:52;138.60;;;59.07;;
21402;SDS011;10862;51.886;17.078;2023-01-25T06:52:18;143.70;;;59.00;;
21402;SDS011;10862;51.886;17.078;2023-01-25T06:54:44;138.50;;;57.03;;
21402;SDS011;10862;51.886;17.078;2023-01-25T06:57:10;143.40;;;54.47;;
21402;SDS011;10862;51.886;17.078;2023-01-25T06:59:36;122.00;;;53.63;;
21402;SDS011;10862;51.886;17.078;2023-01-25T07:02:01;135.13;;;56.03;;
21402;SDS011;10862;51.886;17.078;2023-01-25T07:04:27;153.93;;;61.70;;
21402;SDS011;10862;51.886;17.078;2023-01-25T07:06:53;166.17;;;69.97;;
21402;SDS011;10862;51.886;17.078;2023-01-25T07:09:18;125.63;;;52.03;;
21402;SDS011;10862;51.886;17.078;2023-01-25T07:11:48;144.40;;;59.13;;
21402;SDS011;10862;51.886;17.078;2023-01-25T07:14:15;158.27;;;62.83;;
21402;SDS011;10862;51.886;17.078;2023-01-25T07:16:40;165.03;;;64.60;;
21402;SDS011;10862;51.886;17.078;2023-01-25T07:19:08;185.77;;;73.70;;
21402;SDS011;10862;51.886;17.078;2023-01-25T07:21:35;158.33;;;61.57;;
21402;SDS011;10862;51.886;17.078;2023-01-25T07:24:01;145.50;;;59.43;;
21402;SDS011;10862;51.886;17.078;2023-01-25T07:26:29;193.60;;;70.73;;
21402;SDS011;10862;51.886;17.078;2023-01-25T07:28:56;216.47;;;76.83;;
21402;SDS011;10862;51.886;17.078;2023-01-25T07:31:23;197.03;;;77.73;;
21402;SDS011;10862;51.886;17.078;2023-01-25T07:33:49;161.53;;;62.57;;
21402;SDS011;10862;51.886;17.078;2023-01-25T07:36:16;207.47;;;73.53;;
21402;SDS011;10862;51.886;17.078;2023-01-25T07:38:43;159.10;;;59.30;;
21402;SDS011;10862;51.886;17.078;2023-01-25T07:41:08;134.70;;;52.97;;
21402;SDS011;10862;51.886;17.078;2023-01-25T07:43:34;138.60;;;56.30;;
21402;SDS011;10862;51.886;17.078;2023-01-25T07:46:04;140.33;;;59.50;;
21402;SDS011;10862;51.886;17.078;2023-01-25T07:48:32;189.57;;;79.03;;
21402;SDS011;10862;51.886;17.078;2023-01-25T07:51:02;200.40;;;84.53;;
21402;SDS011;10862;51.886;17.078;2023-01-25T07:54:20;153.97;;;60.27;;
21402;SDS011;10862;51.886;17.078;2023-01-25T07:56:39;143.57;;;52.50;;
21402;SDS011;10862;51.886;17.078;2023-01-25T07:59:05;137.63;;;56.03;;
21402;SDS011;10862;51.886;17.078;2023-01-25T08:01:34;132.33;;;52.60;;
21402;SDS011;10862;51.886;17.078;2023-01-25T08:04:01;131.77;;;53.73;;
21402;SDS011;10862;51.886;17.078;2023-01-25T08:06:29;149.43;;;58.43;;
21402;SDS011;10862;51.886;17.078;2023-01-25T08:08:58;144.70;;;55.73;;
21402;SDS011;10862;51.886;17.078;2023-01-25T08:11:25;142.97;;;56.37;;
21402;SDS011;10862;51.886;17.078;2023-01-25T08:13:52;211.17;;;76.40;;
21402;SDS011;10862;51.886;17.078;2023-01-25T08:16:19;197.67;;;79.30;;
21402;SDS011;10862;51.886;17.078;2023-01-25T08:18:46;209.47;;;87.23;;
21402;SDS011;10862;51.886;17.078;2023-01-25T08:21:13;195.33;;;77.47;;
21402;SDS011;10862;51.886;17.078;2023-01-25T08:23:38;183.80;;;77.00;;
21402;SDS011;10862;51.886;17.078;2023-01-25T08:26:04;184.83;;;87.57;;
21402;SDS011;10862;51.886;17.078;2023-01-25T08:28:32;181.40;;;87.40;;
21402;SDS011;10862;51.886;17.078;2023-01-25T08:31:16;178.03;;;83.93;;
21402;SDS011;10862;51.886;17.078;2023-01-25T08:33:44;200.93;;;82.77;;
21402;SDS011;10862;51.886;17.078;2023-01-25T08:36:11;219.80;;;84.67;;
21402;SDS011;10862;51.886;17.078;2023-01-25T08:38:37;205.70;;;82.60;;
21402;SDS011;10862;51.886;17.078;2023-01-25T08:41:07;219.87;;;89.80;;
21402;SDS011;10862;51.886;17.078;2023-01-25T08:43:35;213.57;;;86.60;;
21402;SDS011;10862;51.886;17.078;2023-01-25T08:46:01;177.73;;;71.80;;
21402;SDS011;10862;51.886;17.078;2023-01-25T08:48:27;180.80;;;69.80;;
21402;SDS011;10862;51.886;17.078;2023-01-25T08:50:53;162.77;;;65.20;;
21402;SDS011;10862;51.886;17.078;2023-01-25T08:53:19;177.17;;;64.67;;
21402;SDS011;10862;51.886;17.078;2023-01-25T08:55:45;187.67;;;73.30;;
21402;SDS011;10862;51.886;17.078;2023-01-25T08:58:11;144.03;;;64.13;;
21402;SDS011;10862;51.886;17.078;2023-01-25T09:00:38;141.30;;;58.83;;
21402;SDS011;10862;51.886;17.078;2023-01-25T09:03:05;125.37;;;54.07;;
21402;SDS011;10862;51.886;17.078;2023-01-25T09:05:34;121.27;;;53.33;;
21402;SDS011;10862;51.886;17.078;2023-01-25T09:08:02;150.83;;;60.43;;
21402;SDS011;10862;51.886;17.078;2023-01-25T09:10:28;136.13;;;57.80;;
21402;SDS011;10862;51.886;17.078;2023-01-25T09:12:54;144.23;;;59.73;;
21402;SDS011;10862;51.886;17.078;2023-01-25T09:15:20;165.33;;;70.30;;
21402;SDS011;10862;51.886;17.078;2023-01-25T09:17:51;170.37;;;73.60;;
21402;SDS011;10862;51.886;17.078;2023-01-25T09:20:20;168.30;;;67.30;;
21402;SDS011;10862;51.886;17.078;2023-01-25T09:22:46;168.77;;;65.17;;
21402;SDS011;10862;51.886;17.078;2023-01-25T09:25:12;157.90;;;64.23;;
21402;SDS011;10862;51.886;17.078;2023-01-25T09:27:38;154.83;;;65.57;;
21402;SDS011;10862;51.886;17.078;2023-01-25T09:30:05;155.10;;;66.23;;
21402;SDS011;10862;51.886;17.078;2023-01-25T09:32:32;180.27;;;70.47;;
21402;SDS011;10862;51.886;17.078;2023-01-25T09:34:57;188.27;;;76.57;;
21402;SDS011;10862;51.886;17.078;2023-01-25T09:37:23;145.13;;;63.30;;
21402;SDS011;10862;51.886;17.078;2023-01-25T09:39:49;136.23;;;64.53;;
21402;SDS011;10862;51.886;17.078;2023-01-25T09:55:40;131.27;;;54.73;;
21402;SDS011;10862;51.886;17.078;2023-01-25T09:58:10;121.67;;;54.03;;
21402;SDS011;10862;51.886;17.078;2023-01-25T10:00:43;195.60;;;83.97;;
21402;SDS011;10862;51.886;17.078;2023-01-25T10:06:03;140.33;;;62.17;;
21402;SDS011;10862;51.886;17.078;2023-01-25T10:08:30;118.97;;;53.53;;
21402;SDS011;10862;51.886;17.078;2023-01-25T10:11:01;116.23;;;53.70;;
21402;SDS011;10862;51.886;17.078;2023-01-25T10:13:35;129.07;;;53.10;;
21402;SDS011;10862;51.886;17.078;2023-01-25T10:16:05;123.17;;;52.33;;
21402;SDS011;10862;51.886;17.078;2023-01-25T10:21:20;98.13;;;46.03;;
21402;SDS011;10862;51.886;17.078;2023-01-25T10:26:55;404.17;;;161.83;;
21402;SDS011;10862;51.886;17.078;2023-01-25T10:29:25;399.47;;;161.90;;
21402;SDS011;10862;51.886;17.078;2023-01-25T10:31:53;253.60;;;114.53;;
21402;SDS011;10862;51.886;17.078;2023-01-25T10:34:33;159.90;;;73.13;;
21402;SDS011;10862;51.886;17.078;2023-01-25T10:37:13;117.93;;;59.00;;
21402;SDS011;10862;51.886;17.078;2023-01-25T10:39:51;137.43;;;66.00;;
21402;SDS011;10862;51.886;17.078;2023-01-25T10:42:18;209.20;;;83.60;;
21402;SDS011;10862;51.886;17.078;2023-01-25T10:44:46;167.60;;;74.83;;
21402;SDS011;10862;51.886;17.078;2023-01-25T10:47:14;173.43;;;71.60;;
21402;SDS011;10862;51.886;17.078;2023-01-25T10:49:54;178.53;;;79.20;;
21402;SDS011;10862;51.886;17.078;2023-01-25T10:52:27;167.00;;;74.00;;
21402;SDS011;10862;51.886;17.078;2023-01-25T10:57:42;96.17;;;45.23;;
21402;SDS011;10862;51.886;17.078;2023-01-25T11:03:00;209.73;;;84.33;;
21402;SDS011;10862;51.886;17.078;2023-01-25T11:07:52;209.33;;;93.47;;
21402;SDS011;10862;51.886;17.078;2023-01-25T11:15:44;162.63;;;72.57;;
21402;SDS011;10862;51.886;17.078;2023-01-25T11:18:22;146.17;;;70.97;;
21402;SDS011;10862;51.886;17.078;2023-01-25T11:23:31;153.43;;;72.73;;
21402;SDS011;10862;51.886;17.078;2023-01-25T11:26:16;103.43;;;50.93;;
21402;SDS011;10862;51.886;17.078;2023-01-25T11:28:44;114.73;;;57.10;;
21402;SDS011;10862;51.886;17.078;2023-01-25T11:31:13;151.30;;;69.50;;
21402;SDS011;10862;51.886;17.078;2023-01-25T11:33:41;94.07;;;46.77;;
21402;SDS011;10862;51.886;17.078;2023-01-25T11:38:39;225.83;;;91.93;;
21402;SDS011;10862;51.886;17.078;2023-01-25T11:43:57;91.03;;;45.43;;
21402;SDS011;10862;51.886;17.078;2023-01-25T11:51:42;235.77;;;89.57;;
21402;SDS011;10862;51.886;17.078;2023-01-25T11:54:25;150.57;;;68.37;;
21402;SDS011;10862;51.886;17.078;2023-01-25T11:57:16;122.50;;;57.27;;
21402;SDS011;10862;51.886;17.078;2023-01-25T12:19:01;62.07;;;36.17;;
21402;SDS011;10862;51.886;17.078;2023-01-25T12:29:59;125.57;;;64.67;;
21402;SDS011;10862;51.886;17.078;2023-01-25T12:32:54;77.23;;;42.30;;
21402;SDS011;10862;51.886;17.078;2023-01-25T12:46:32;100.13;;;52.10;;
21402;SDS011;10862;51.886;17.078;2023-01-25T12:49:05;94.20;;;47.47;;
21402;SDS011;10862;51.886;17.078;2023-01-25T12:51:38;203.83;;;77.00;;
21402;SDS011;10862;51.886;17.078;2023-01-25T12:54:12;204.00;;;88.27;;
21402;SDS011;10862;51.886;17.078;2023-01-25T13:00:04;121.67;;;57.10;;
21402;SDS011;10862;51.886;17.078;2023-01-25T13:08:00;88.73;;;48.40;;
21402;SDS011;10862;51.886;17.078;2023-01-25T13:10:44;210.87;;;73.73;;
21402;SDS011;10862;51.886;17.078;2023-01-25T13:13:23;225.50;;;77.83;;
21402;SDS011;10862;51.886;17.078;2023-01-25T13:15:51;104.43;;;42.83;;
21402;SDS011;10862;51.886;17.078;2023-01-25T13:21:02;242.50;;;85.47;;
21402;SDS011;10862;51.886;17.078;2023-01-25T13:23:39;160.67;;;60.40;;
21402;SDS011;10862;51.886;17.078;2023-01-25T13:28:49;152.87;;;66.57;;
21402;SDS011;10862;51.886;17.078;2023-01-25T13:34:14;91.87;;;46.30;;
21402;SDS011;10862;51.886;17.078;2023-01-25T13:37:17;102.13;;;42.27;;
21402;SDS011;10862;51.886;17.078;2023-01-25T13:39:47;266.37;;;85.53;;
21402;SDS011;10862;51.886;17.078;2023-01-25T13:42:35;188.63;;;79.83;;
21402;SDS011;10862;51.886;17.078;2023-01-25T13:45:13;328.33;;;94.50;;
21402;SDS011;10862;51.886;17.078;2023-01-25T13:47:42;224.43;;;76.80;;
21402;SDS011;10862;51.886;17.078;2023-01-25T13:50:23;271.20;;;102.67;;
21402;SDS011;10862;51.886;17.078;2023-01-25T13:53:01;361.93;;;138.80;;
21402;SDS011;10862;51.886;17.078;2023-01-25T13:55:28;153.53;;;61.10;;
21402;SDS011;10862;51.886;17.078;2023-01-25T14:03:39;101.47;;;42.27;;
21402;SDS011;10862;51.886;17.078;2023-01-25T14:06:17;170.93;;;65.57;;
21402;SDS011;10862;51.886;17.078;2023-01-25T14:08:47;137.73;;;55.70;;
21402;SDS011;10862;51.886;17.078;2023-01-25T14:11:18;200.53;;;93.40;;
21402;SDS011;10862;51.886;17.078;2023-01-25T14:16:20;144.53;;;60.57;;
21402;SDS011;10862;51.886;17.078;2023-01-25T14:18:46;136.13;;;64.93;;
21402;SDS011;10862;51.886;17.078;2023-01-25T14:21:16;136.83;;;57.97;;
21402;SDS011;10862;51.886;17.078;2023-01-25T14:23:46;119.93;;;55.43;;
21402;SDS011;10862;51.886;17.078;2023-01-25T14:26:20;147.77;;;57.03;;
21402;SDS011;10862;51.886;17.078;2023-01-25T14:28:49;139.23;;;60.40;;
21402;SDS011;10862;51.886;17.078;2023-01-25T14:31:21;192.80;;;94.07;;
21402;SDS011;10862;51.886;17.078;2023-01-25T14:33:59;328.03;;;139.27;;
21402;SDS011;10862;51.886;17.078;2023-01-25T14:36:28;295.40;;;123.87;;
21402;SDS011;10862;51.886;17.078;2023-01-25T14:38:56;416.70;;;185.73;;
21402;SDS011;10862;51.886;17.078;2023-01-25T14:41:31;395.77;;;157.90;;
21402;SDS011;10862;51.886;17.078;2023-01-25T14:44:00;296.63;;;119.23;;
21402;SDS011;10862;51.886;17.078;2023-01-25T14:46:29;257.13;;;100.80;;
21402;SDS011;10862;51.886;17.078;2023-01-25T14:49:14;208.00;;;88.60;;
21402;SDS011;10862;51.886;17.078;2023-01-25T14:51:52;149.53;;;66.87;;
21402;SDS011;10862;51.886;17.078;2023-01-25T14:54:23;147.67;;;65.63;;
21402;SDS011;10862;51.886;17.078;2023-01-25T14:56:51;114.60;;;49.47;;
21402;SDS011;10862;51.886;17.078;2023-01-25T14:59:24;169.47;;;67.87;;
21402;SDS011;10862;51.886;17.078;2023-01-25T15:01:58;273.60;;;98.63;;
21402;SDS011;10862;51.886;17.078;2023-01-25T15:04:26;237.90;;;97.87;;
21402;SDS011;10862;51.886;17.078;2023-01-25T15:06:53;227.07;;;96.10;;
21402;SDS011;10862;51.886;17.078;2023-01-25T15:14:49;241.90;;;84.40;;
21402;SDS011;10862;51.886;17.078;2023-01-25T15:17:38;265.83;;;91.80;;
21402;SDS011;10862;51.886;17.078;2023-01-25T15:22:59;258.27;;;85.03;;
21402;SDS011;10862;51.886;17.078;2023-01-25T15:25:56;175.00;;;66.17;;
21402;SDS011;10862;51.886;17.078;2023-01-25T15:28:27;179.97;;;68.63;;
21402;SDS011;10862;51.886;17.078;2023-01-25T15:30:58;150.90;;;58.17;;
21402;SDS011;10862;51.886;17.078;2023-01-25T15:33:25;164.57;;;66.83;;
21402;SDS011;10862;51.886;17.078;2023-01-25T15:35:53;212.77;;;93.00;;
21402;SDS011;10862;51.886;17.078;2023-01-25T15:38:19;308.53;;;127.37;;
21402;SDS011;10862;51.886;17.078;2023-01-25T15:40:46;311.87;;;115.50;;
21402;SDS011;10862;51.886;17.078;2023-01-25T15:43:13;356.00;;;113.57;;
21402;SDS011;10862;51.886;17.078;2023-01-25T15:45:41;214.20;;;80.23;;
21402;SDS011;10862;51.886;17.078;2023-01-25T15:48:15;150.93;;;58.13;;
21402;SDS011;10862;51.886;17.078;2023-01-25T15:50:43;127.10;;;49.23;;
21402;SDS011;10862;51.886;17.078;2023-01-25T15:53:11;105.90;;;45.07;;
21402;SDS011;10862;51.886;17.078;2023-01-25T15:55:39;156.20;;;57.30;;
21402;SDS011;10862;51.886;17.078;2023-01-25T15:58:05;232.53;;;76.73;;
21402;SDS011;10862;51.886;17.078;2023-01-25T16:00:31;176.97;;;60.63;;
21402;SDS011;10862;51.886;17.078;2023-01-25T16:02:57;206.33;;;71.10;;
21402;SDS011;10862;51.886;17.078;2023-01-25T16:05:23;131.53;;;53.47;;
21402;SDS011;10862;51.886;17.078;2023-01-25T16:07:48;281.90;;;120.20;;
21402;SDS011;10862;51.886;17.078;2023-01-25T16:10:21;161.43;;;67.90;;
21402;SDS011;10862;51.886;17.078;2023-01-25T16:12:48;241.77;;;97.17;;
21402;SDS011;10862;51.886;17.078;2023-01-25T16:15:15;249.47;;;93.43;;